createdAt,value
2022-10-19T00:01:31.129Z,7.80
2022-10-19T00:04:02.501Z,7.90
2022-10-19T00:06:35.566Z,7.90
2022-10-19T00:09:07.716Z,8.00
2022-10-19T00:11:37.776Z,8.00
2022-10-19T00:14:07.146Z,8.10
2022-10-19T00:16:37.823Z,8.10
2022-10-19T00:19:08.193Z,8.20
2022-10-19T00:21:36.273Z,8.20
2022-10-19T00:24:06.219Z,8.30
2022-10-19T00:26:34.334Z,8.30
2022-10-19T00:29:02.571Z,8.40
2022-10-19T00:31:30.623Z,8.40
2022-10-19T00:33:59.365Z,8.40
2022-10-19T00:36:29.054Z,8.50
2022-10-19T00:38:57.876Z,8.50
2022-10-19T00:41:29.816Z,8.60
2022-10-19T00:43:59.936Z,8.60
2022-10-19T00:46:29.846Z,8.60
2022-10-19T00:49:01.732Z,8.70
2022-10-19T00:51:32.682Z,8.70
2022-10-19T00:54:03.251Z,8.80
2022-10-19T00:56:33.564Z,8.80
2022-10-19T00:59:04.568Z,8.80
2022-10-19T01:01:34.228Z,8.90
2022-10-19T01:04:02.787Z,8.90
2022-10-19T01:06:31.054Z,8.90
2022-10-19T01:08:59.057Z,8.90
2022-10-19T01:11:40.449Z,9.00
2022-10-19T01:14:21.980Z,9.00
2022-10-19T01:16:56.223Z,9.00
2022-10-19T01:19:42.844Z,9.00
2022-10-19T01:22:28.007Z,9.00
2022-10-19T01:25:11.041Z,9.10
2022-10-19T01:28:04.305Z,9.10
2022-10-19T01:30:48.347Z,9.10
2022-10-19T01:33:32.010Z,9.10
2022-10-19T01:36:10.338Z,9.10
2022-10-19T01:38:43.293Z,9.10
2022-10-19T01:41:17.154Z,9.20
2022-10-19T01:43:49.984Z,9.10
2022-10-19T01:46:24.004Z,9.20
2022-10-19T01:48:57.184Z,9.20
2022-10-19T01:51:30.128Z,9.20
2022-10-19T01:54:02.042Z,9.20
2022-10-19T01:56:33.395Z,9.20
2022-10-19T01:59:05.186Z,9.20
2022-10-19T02:01:36.814Z,9.20
2022-10-19T02:04:06.197Z,9.20
2022-10-19T02:06:34.312Z,9.10
2022-10-19T02:09:02.391Z,9.10
2022-10-19T02:11:32.576Z,9.00
2022-10-19T02:14:05.797Z,8.90
2022-10-19T02:16:41.090Z,9.00
2022-10-19T02:19:11.191Z,9.00
2022-10-19T02:21:39.310Z,8.90
2022-10-19T02:24:07.561Z,9.00
2022-10-19T02:26:35.880Z,8.90
2022-10-19T02:29:03.913Z,8.90
2022-10-19T02:31:32.188Z,9.00
2022-10-19T02:34:01.583Z,8.90
2022-10-19T02:36:29.740Z,8.90
2022-10-19T02:38:57.804Z,8.90
2022-10-19T02:44:16.064Z,9.00
2022-10-19T02:46:46.336Z,9.00
2022-10-19T02:49:16.437Z,9.00
2022-10-19T02:51:58.612Z,9.00
2022-10-19T02:54:26.776Z,9.10
2022-10-19T02:56:54.676Z,9.10
2022-10-19T02:59:22.879Z,9.10
2022-10-19T03:01:50.971Z,9.10
2022-10-19T03:04:20.327Z,9.10
2022-10-19T03:06:48.360Z,9.10
2022-10-19T03:09:16.325Z,9.10
2022-10-19T03:11:44.219Z,9.10
2022-10-19T03:14:12.065Z,9.10
2022-10-19T03:16:39.859Z,9.10
2022-10-19T03:19:07.944Z,9.10
2022-10-19T03:21:37.276Z,9.10
2022-10-19T03:24:05.475Z,9.10
2022-10-19T03:26:33.347Z,9.10
2022-10-19T03:29:01.439Z,9.10
2022-10-19T03:31:29.380Z,9.10
2022-10-19T03:33:57.309Z,9.10
2022-10-19T03:36:27.261Z,9.10
2022-10-19T03:38:58.587Z,9.20
2022-10-19T03:41:28.306Z,9.20
2022-10-19T03:43:56.426Z,9.20
2022-10-19T03:46:25.161Z,9.20
2022-10-19T03:48:53.041Z,9.20
2022-10-19T03:51:23.339Z,9.10
2022-10-19T03:53:54.466Z,9.20
2022-10-19T03:56:26.258Z,9.20
2022-10-19T03:58:55.719Z,9.30
2022-10-19T04:01:25.806Z,9.20
2022-10-19T04:03:54.592Z,9.20
2022-10-19T04:06:29.075Z,9.30
2022-10-19T04:08:57.416Z,9.30
2022-10-19T04:11:29.304Z,9.20
2022-10-19T04:13:58.631Z,9.30
2022-10-19T04:16:28.037Z,9.20
2022-10-19T04:18:56.011Z,9.20
2022-10-19T04:21:26.372Z,9.20
2022-10-19T04:23:58.238Z,9.30
2022-10-19T04:26:28.245Z,9.20
2022-10-19T04:28:58.718Z,9.30
2022-10-19T04:31:27.521Z,9.30
2022-10-19T04:33:55.773Z,9.30
2022-10-19T04:36:23.955Z,9.30
2022-10-19T04:38:52.136Z,9.30
2022-10-19T04:41:21.991Z,9.30
2022-10-19T04:43:59.622Z,9.30
2022-10-19T04:46:28.854Z,9.30
2022-10-19T04:48:57.949Z,9.30
2022-10-19T04:51:26.595Z,9.30
2022-10-19T04:53:59.328Z,9.40
2022-10-19T04:56:29.235Z,9.30
2022-10-19T04:58:59.390Z,9.30
2022-10-19T05:01:28.993Z,9.30
2022-10-19T05:03:58.579Z,9.30
2022-10-19T05:06:26.805Z,9.30
2022-10-19T05:08:54.945Z,9.30
2022-10-19T05:11:22.988Z,9.30
2022-10-19T05:13:51.764Z,9.30
2022-10-19T05:16:23.449Z,9.30
2022-10-19T05:18:52.269Z,9.30
2022-10-19T05:21:21.879Z,9.30
2022-10-19T05:23:53.422Z,9.30
2022-10-19T05:26:23.099Z,9.30
2022-10-19T05:28:56.256Z,9.30
2022-10-19T05:31:27.274Z,9.40
2022-10-19T05:33:56.374Z,9.40
2022-10-19T05:36:26.289Z,9.30
2022-10-19T05:38:55.726Z,9.30
2022-10-19T05:41:24.722Z,9.30
2022-10-19T05:43:54.466Z,9.50
2022-10-19T05:46:22.608Z,9.40
2022-10-19T05:48:51.967Z,9.40
2022-10-19T05:51:25.091Z,9.40
2022-10-19T05:53:54.614Z,9.40
2022-10-19T05:56:24.406Z,9.40
2022-10-19T05:58:52.829Z,9.50
2022-10-19T06:01:21.390Z,9.40
2022-10-19T06:03:54.628Z,9.50
2022-10-19T06:06:23.157Z,9.40
2022-10-19T06:08:51.831Z,9.50
2022-10-19T06:11:21.795Z,9.60
2022-10-19T06:13:51.344Z,9.60
2022-10-19T06:16:20.821Z,9.60
2022-10-19T06:18:48.679Z,9.60
2022-10-19T06:21:20.083Z,9.60
2022-10-19T06:23:51.678Z,9.60
2022-10-19T06:26:19.858Z,9.70
2022-10-19T06:28:48.537Z,9.70
2022-10-19T06:31:16.789Z,9.70
2022-10-19T06:33:49.188Z,9.70
2022-10-19T06:36:21.013Z,9.80
2022-10-19T06:38:49.872Z,9.80
2022-10-19T06:41:18.715Z,9.90
2022-10-19T06:43:50.299Z,9.80
2022-10-19T06:46:22.112Z,9.90
2022-10-19T06:48:54.015Z,9.90
2022-10-19T06:51:25.514Z,10.00
2022-10-19T06:53:56.658Z,10.00
2022-10-19T06:56:25.579Z,10.10
2022-10-19T06:58:53.553Z,10.10
2022-10-19T07:01:22.377Z,10.20
2022-10-19T07:03:52.408Z,10.20
2022-10-19T07:06:21.062Z,10.20
2022-10-19T07:08:51.033Z,10.20
2022-10-19T07:11:22.501Z,10.20
2022-10-19T07:13:50.954Z,10.20
2022-10-19T07:16:21.476Z,10.30
2022-10-19T07:18:51.198Z,10.30
2022-10-19T07:21:19.917Z,10.40
2022-10-19T07:23:48.689Z,10.40
2022-10-19T07:26:23.555Z,10.40
2022-10-19T07:28:51.966Z,10.50
2022-10-19T07:31:22.016Z,10.50
2022-10-19T07:33:53.412Z,10.50
2022-10-19T07:36:21.689Z,10.50
2022-10-19T07:38:49.707Z,10.60
2022-10-19T07:41:21.014Z,10.60
2022-10-19T07:43:49.637Z,10.70
2022-10-19T07:46:19.417Z,10.70
2022-10-19T07:48:48.073Z,10.70
2022-10-19T07:51:17.742Z,10.70
2022-10-19T07:53:46.656Z,10.80
2022-10-19T07:56:17.336Z,10.80
2022-10-19T07:58:46.942Z,10.80
2022-10-19T08:01:17.627Z,10.90
2022-10-19T08:06:35.167Z,11.00
2022-10-19T08:09:03.195Z,11.00
2022-10-19T08:11:33.133Z,11.10
2022-10-19T08:14:03.866Z,11.20
2022-10-19T08:16:33.934Z,11.20
2022-10-19T08:19:04.981Z,11.20
2022-10-19T08:21:32.995Z,11.20
2022-10-19T08:24:01.005Z,11.30
2022-10-19T08:26:30.884Z,11.40
2022-10-19T08:29:03.860Z,11.40
2022-10-19T08:31:32.304Z,11.50
2022-10-19T08:34:00.631Z,11.40
2022-10-19T08:36:31.301Z,11.50
2022-10-19T08:39:00.052Z,11.50
2022-10-19T08:41:36.477Z,11.60
2022-10-19T08:44:24.481Z,11.60
2022-10-19T08:47:02.700Z,11.60
2022-10-19T08:49:33.089Z,11.70
2022-10-19T08:52:05.432Z,11.80
2022-10-19T08:54:41.611Z,11.80
2022-10-19T08:57:19.025Z,11.80
2022-10-19T08:59:53.057Z,11.90
2022-10-19T09:02:32.929Z,11.90
2022-10-19T09:05:06.766Z,12.00
2022-10-19T09:07:37.466Z,11.90
2022-10-19T09:10:17.155Z,12.00
2022-10-19T09:12:50.622Z,12.00
2022-10-19T09:15:26.414Z,12.10
2022-10-19T09:17:54.688Z,12.20
2022-10-19T09:20:26.329Z,12.20
2022-10-19T09:23:04.345Z,12.10
2022-10-19T09:25:34.599Z,12.10
2022-10-19T09:28:15.673Z,12.20
2022-10-19T09:30:46.987Z,12.10
2022-10-19T09:33:24.111Z,12.10
2022-10-19T09:35:52.374Z,12.20
2022-10-19T09:38:23.563Z,12.30
2022-10-19T09:40:51.466Z,12.30
2022-10-19T09:43:20.750Z,12.10
2022-10-19T09:45:54.196Z,12.20
2022-10-19T09:48:29.315Z,12.20
2022-10-19T09:50:59.767Z,12.30
2022-10-19T09:53:28.888Z,12.40
2022-10-19T09:56:04.137Z,12.40
2022-10-19T09:58:33.214Z,12.50
2022-10-19T10:01:04.378Z,12.60
2022-10-19T10:03:35.431Z,12.70
2022-10-19T10:06:05.861Z,12.70
2022-10-19T10:08:37.341Z,12.70
2022-10-19T10:11:09.007Z,12.60
2022-10-19T10:13:39.516Z,12.70
2022-10-19T10:16:12.055Z,12.70
2022-10-19T10:18:55.076Z,12.70
2022-10-19T10:21:25.962Z,12.60
2022-10-19T10:24:03.638Z,12.70
2022-10-19T10:26:31.709Z,12.60
2022-10-19T10:29:01.430Z,12.60
2022-10-19T10:31:31.854Z,12.70
2022-10-19T10:34:11.099Z,12.80
2022-10-19T10:36:54.847Z,12.80
2022-10-19T10:39:24.977Z,12.80
2022-10-19T10:41:53.030Z,12.80
2022-10-19T10:44:24.510Z,12.80
2022-10-19T10:46:57.363Z,12.90
2022-10-19T10:49:28.625Z,12.90
2022-10-19T10:51:59.261Z,12.90
2022-10-19T10:54:30.516Z,12.90
2022-10-19T10:57:13.807Z,13.00
2022-10-19T10:59:51.357Z,13.00
2022-10-19T11:02:29.286Z,13.00
2022-10-19T11:05:01.710Z,13.00
2022-10-19T11:07:31.282Z,13.10
2022-10-19T11:10:02.668Z,13.00
2022-10-19T11:12:39.390Z,13.00
2022-10-19T11:15:20.862Z,13.10
2022-10-19T11:17:58.786Z,13.20
2022-10-19T11:20:31.375Z,13.20
2022-10-19T11:23:09.179Z,13.20
2022-10-19T11:25:50.181Z,13.20
2022-10-19T11:28:35.801Z,13.20
2022-10-19T11:31:12.059Z,13.20
2022-10-19T11:33:55.116Z,13.20
2022-10-19T11:36:40.099Z,13.10
2022-10-19T11:39:32.083Z,13.00
2022-10-19T11:42:07.691Z,13.00
2022-10-19T11:44:45.841Z,13.00
2022-10-19T11:47:31.499Z,13.00
2022-10-19T11:50:11.469Z,12.90
2022-10-19T11:52:48.498Z,12.90
2022-10-19T11:55:28.699Z,13.00
2022-10-19T11:58:05.850Z,13.10
2022-10-19T12:00:39.913Z,13.20
2022-10-19T12:03:31.380Z,13.20
2022-10-19T12:06:11.872Z,13.30
2022-10-19T12:08:56.170Z,13.30
2022-10-19T12:11:32.988Z,13.30
2022-10-19T12:14:04.632Z,13.40
2022-10-19T12:16:44.662Z,13.50
2022-10-19T12:19:19.437Z,13.70
2022-10-19T12:21:49.462Z,14.00
2022-10-19T12:24:20.451Z,14.00
2022-10-19T12:26:50.662Z,14.00
2022-10-19T12:29:23.007Z,13.90
2022-10-19T12:31:52.117Z,13.80
2022-10-19T12:34:30.200Z,13.70
2022-10-19T12:37:07.031Z,13.60
2022-10-19T12:39:40.447Z,13.60
2022-10-19T12:42:16.568Z,13.50
2022-10-19T12:45:10.790Z,13.50
2022-10-19T12:47:38.910Z,13.50
2022-10-19T12:50:07.708Z,13.50
2022-10-19T12:52:41.894Z,13.40
2022-10-19T12:55:30.561Z,13.40
2022-10-19T12:58:02.069Z,13.30
2022-10-19T13:00:32.389Z,13.40
2022-10-19T13:03:04.795Z,13.40
2022-10-19T13:05:33.776Z,13.30
2022-10-19T13:08:07.972Z,13.30
2022-10-19T13:10:39.133Z,13.30
2022-10-19T13:13:27.233Z,13.30
2022-10-19T13:15:55.247Z,13.30
2022-10-19T13:19:10.724Z,13.40
2022-10-19T13:21:47.462Z,13.40
2022-10-19T13:24:28.394Z,13.60
2022-10-19T13:27:28.531Z,13.70
2022-10-19T13:29:56.737Z,13.60
2022-10-19T13:32:44.466Z,13.60
2022-10-19T13:35:41.124Z,13.60
2022-10-19T13:38:24.408Z,13.50
2022-10-19T13:41:04.489Z,13.50
2022-10-19T13:43:35.581Z,13.50
2022-10-19T13:46:11.114Z,13.40
2022-10-19T13:48:57.788Z,13.40
2022-10-19T13:51:32.947Z,13.40
2022-10-19T13:54:11.550Z,13.40
2022-10-19T13:56:55.165Z,13.30
2022-10-19T13:59:42.819Z,13.10
2022-10-19T14:02:51.989Z,13.10
2022-10-19T14:05:49.253Z,12.90
2022-10-19T14:08:41.440Z,12.80
2022-10-19T14:11:16.328Z,12.70
2022-10-19T14:13:45.769Z,12.50
2022-10-19T14:16:21.341Z,12.40
2022-10-19T14:18:55.998Z,12.30
2022-10-19T14:21:31.960Z,12.20
2022-10-19T14:24:00.229Z,11.90
2022-10-19T14:26:31.486Z,11.80
2022-10-19T14:29:01.466Z,11.70
2022-10-19T14:31:34.515Z,11.60
2022-10-19T14:34:05.068Z,11.50
2022-10-19T14:36:37.336Z,11.50
2022-10-19T14:39:07.645Z,11.40
2022-10-19T14:41:37.918Z,11.30
2022-10-19T14:44:45.637Z,11.30
2022-10-19T14:47:27.122Z,11.30
2022-10-19T14:49:55.110Z,11.20
2022-10-19T14:52:29.291Z,11.20
2022-10-19T14:54:58.212Z,11.10
2022-10-19T14:57:29.443Z,11.10
2022-10-19T15:00:00.239Z,11.00
2022-10-19T15:02:33.358Z,10.90
2022-10-19T15:05:04.179Z,10.90
2022-10-19T15:07:38.859Z,10.80
2022-10-19T15:10:09.649Z,10.80
2022-10-19T15:12:41.337Z,10.70
2022-10-19T15:15:11.384Z,10.60
2022-10-19T15:17:51.549Z,10.50
2022-10-19T15:20:26.720Z,10.50
2022-10-19T15:22:55.017Z,10.40
2022-10-19T15:25:37.011Z,10.30
2022-10-19T15:28:22.287Z,10.20
2022-10-19T15:31:02.691Z,10.10
2022-10-19T15:33:38.206Z,10.10
2022-10-19T15:36:17.066Z,9.90
2022-10-19T15:38:46.473Z,9.80
2022-10-19T15:41:22.634Z,9.70
2022-10-19T15:43:52.490Z,9.70
2022-10-19T15:46:32.522Z,9.50
2022-10-19T15:49:05.594Z,9.40
2022-10-19T15:51:44.061Z,9.40
2022-10-19T15:54:12.439Z,9.40
2022-10-19T15:56:41.385Z,9.30
2022-10-19T15:59:14.554Z,9.20
2022-10-19T16:01:43.218Z,9.10
2022-10-19T16:04:12.941Z,9.00
2022-10-19T16:06:42.746Z,8.90
2022-10-19T16:09:17.180Z,8.80
2022-10-19T16:11:45.511Z,8.70
2022-10-19T16:14:13.754Z,8.70
2022-10-19T16:16:42.028Z,8.70
2022-10-19T16:19:12.338Z,8.60
2022-10-19T16:21:40.293Z,8.50
2022-10-19T16:24:08.474Z,8.40
2022-10-19T16:26:36.448Z,8.30
2022-10-19T16:29:04.814Z,8.20
2022-10-19T16:31:32.914Z,8.10
2022-10-19T16:34:00.793Z,8.00
2022-10-19T16:36:30.399Z,7.90
2022-10-19T16:39:01.235Z,7.80
2022-10-19T16:41:29.259Z,7.70
2022-10-19T16:43:57.945Z,7.60
2022-10-19T16:46:27.822Z,7.60
2022-10-19T16:48:56.919Z,7.50
2022-10-19T16:51:38.525Z,7.40
2022-10-19T16:54:08.893Z,7.30
2022-10-19T16:56:38.270Z,7.20
2022-10-19T16:59:07.527Z,7.20
2022-10-19T17:01:36.369Z,7.10
2022-10-19T17:04:04.425Z,7.10
2022-10-19T17:06:35.248Z,7.00
2022-10-19T17:11:51.268Z,6.90
2022-10-19T17:14:19.278Z,6.80
2022-10-19T17:16:47.409Z,6.70
2022-10-19T17:19:15.416Z,6.70
2022-10-19T17:21:44.981Z,6.60
2022-10-19T17:24:21.014Z,6.60
2022-10-19T17:26:50.652Z,6.50
2022-10-19T17:29:18.708Z,6.40
2022-10-19T17:31:46.422Z,6.40
2022-10-19T17:34:16.167Z,6.40
2022-10-19T17:36:46.734Z,6.40
2022-10-19T17:42:36.545Z,6.30
2022-10-19T17:45:04.607Z,6.20
2022-10-19T17:47:32.597Z,6.20
2022-10-19T17:50:00.617Z,6.10
2022-10-19T17:52:29.645Z,6.10
2022-10-19T17:55:13.590Z,6.10
2022-10-19T17:57:41.518Z,6.00
2022-10-19T18:00:09.955Z,5.90
2022-10-19T18:02:37.963Z,5.90
2022-10-19T18:05:06.664Z,5.90
2022-10-19T18:07:36.164Z,5.80
2022-10-19T18:10:04.467Z,5.80
2022-10-19T18:12:32.192Z,5.70
2022-10-19T18:14:59.884Z,5.70
2022-10-19T18:17:28.071Z,5.70
2022-10-19T18:19:55.865Z,5.60
2022-10-19T18:22:23.782Z,5.70
2022-10-19T18:24:52.944Z,5.70
2022-10-19T18:27:20.857Z,5.70
2022-10-19T18:29:48.622Z,5.70
2022-10-19T18:32:16.462Z,5.70
2022-10-19T18:34:44.113Z,5.70
2022-10-19T18:37:11.897Z,5.70
2022-10-19T18:39:39.762Z,5.70
2022-10-19T18:42:12.076Z,5.70
2022-10-19T18:44:39.926Z,5.70
2022-10-19T18:47:07.727Z,5.80
2022-10-19T18:49:35.519Z,5.70
2022-10-19T18:52:03.270Z,5.70
2022-10-19T18:54:31.022Z,5.80
2022-10-19T18:56:58.885Z,5.80
2022-10-19T19:02:00.541Z,5.80
2022-10-19T19:04:29.722Z,5.70
2022-10-19T19:06:57.666Z,5.70
2022-10-19T19:09:25.534Z,5.70
2022-10-19T19:11:54.515Z,5.70
2022-10-19T19:14:22.344Z,5.60
2022-10-19T19:16:55.362Z,5.60
2022-10-19T19:19:24.416Z,5.60
2022-10-19T19:21:52.686Z,5.50
2022-10-19T19:24:22.857Z,5.50
2022-10-19T19:26:53.142Z,5.40
2022-10-19T19:29:22.690Z,5.40
2022-10-19T19:31:53.448Z,5.20
2022-10-19T19:34:21.779Z,5.20
2022-10-19T19:36:49.935Z,5.10
2022-10-19T19:39:20.119Z,5.20
2022-10-19T19:41:48.805Z,5.00
2022-10-19T19:44:17.069Z,5.00
2022-10-19T19:46:45.137Z,4.90
2022-10-19T19:49:14.493Z,4.90
2022-10-19T19:51:42.486Z,4.90
2022-10-19T19:54:14.285Z,4.80
2022-10-19T19:56:43.213Z,4.70
2022-10-19T19:59:12.710Z,4.70
2022-10-19T20:01:40.750Z,4.70
2022-10-19T20:04:08.787Z,4.60
2022-10-19T20:06:39.753Z,4.60
2022-10-19T20:09:09.298Z,4.50
2022-10-19T20:11:42.091Z,4.50
2022-10-19T20:14:10.774Z,4.40
2022-10-19T20:16:38.776Z,4.20
2022-10-19T20:19:08.422Z,4.30
2022-10-19T20:21:38.629Z,4.30
2022-10-19T20:24:07.431Z,4.30
2022-10-19T20:26:47.231Z,4.20
2022-10-19T20:29:15.090Z,4.10
2022-10-19T20:31:43.132Z,4.20
2022-10-19T20:34:13.625Z,4.10
2022-10-19T20:36:43.012Z,4.10
2022-10-19T20:39:11.361Z,4.10
2022-10-19T20:41:39.363Z,4.10
2022-10-19T20:44:07.701Z,4.10
2022-10-19T20:46:37.012Z,4.10
2022-10-19T20:49:07.368Z,4.00
2022-10-19T20:51:37.954Z,4.00
2022-10-19T20:54:13.238Z,3.90
2022-10-19T20:56:42.507Z,3.90
2022-10-19T20:59:13.418Z,3.90
2022-10-19T21:01:43.165Z,3.90
2022-10-19T21:04:13.104Z,3.90
2022-10-19T21:06:46.372Z,3.90
2022-10-19T21:09:18.089Z,3.90
2022-10-19T21:11:47.318Z,3.90
2022-10-19T21:14:17.649Z,3.90
2022-10-19T21:16:45.905Z,4.00
2022-10-19T21:19:15.783Z,4.00
2022-10-19T21:21:45.660Z,4.00
2022-10-19T21:24:17.027Z,4.00
2022-10-19T21:26:45.605Z,4.00
2022-10-19T21:29:15.393Z,4.00
2022-10-19T21:31:48.001Z,3.90
2022-10-19T21:34:19.172Z,3.90
2022-10-19T21:36:47.637Z,3.90
2022-10-19T21:39:17.345Z,3.90
2022-10-19T21:41:45.412Z,3.90
2022-10-19T21:44:13.698Z,3.90
2022-10-19T21:46:43.053Z,3.90
2022-10-19T21:49:12.940Z,3.90
2022-10-19T21:51:44.803Z,3.90
2022-10-19T21:54:14.481Z,3.90
2022-10-19T21:56:43.902Z,3.90
2022-10-19T21:59:12.695Z,4.00
2022-10-19T22:01:41.572Z,4.00
2022-10-19T22:04:13.079Z,4.10
2022-10-19T22:06:42.138Z,4.00
2022-10-19T22:09:13.159Z,4.00
2022-10-19T22:11:41.033Z,4.00
2022-10-19T22:14:13.202Z,3.90
2022-10-19T22:16:41.916Z,3.90
2022-10-19T22:19:10.417Z,3.90
2022-10-19T22:24:13.881Z,3.80
2022-10-19T22:26:43.918Z,3.80
2022-10-19T22:29:13.468Z,3.80
2022-10-19T22:31:41.440Z,3.80
2022-10-19T22:34:11.860Z,3.80
2022-10-19T22:36:39.946Z,3.70
2022-10-19T22:39:08.509Z,3.70
2022-10-19T22:41:36.493Z,3.70
2022-10-19T22:44:04.605Z,3.60
2022-10-19T22:46:34.021Z,3.60
2022-10-19T22:49:02.058Z,3.50
2022-10-19T22:51:30.101Z,3.50
2022-10-19T22:53:58.175Z,3.50
2022-10-19T22:56:26.168Z,3.40
2022-10-19T22:58:54.142Z,3.40
2022-10-19T23:01:22.126Z,3.40
2022-10-19T23:03:51.565Z,3.40
2022-10-19T23:06:19.660Z,3.40
2022-10-19T23:08:47.899Z,3.30
2022-10-19T23:11:16.695Z,3.30
2022-10-19T23:13:45.020Z,3.20
2022-10-19T23:16:13.175Z,3.20
2022-10-19T23:18:42.268Z,3.20
2022-10-19T23:21:14.377Z,3.20
2022-10-19T23:23:42.939Z,3.20
2022-10-19T23:26:12.985Z,3.10
2022-10-19T23:28:43.198Z,3.10
2022-10-19T23:31:13.813Z,3.00
2022-10-19T23:33:42.857Z,3.00
2022-10-19T23:36:15.429Z,3.00
2022-10-19T23:38:43.720Z,2.90
2022-10-19T23:41:12.418Z,3.00
2022-10-19T23:43:40.866Z,2.90
2022-10-19T23:46:09.268Z,2.90
2022-10-19T23:48:37.191Z,2.90
2022-10-19T23:51:07.660Z,2.90
2022-10-19T23:53:41.030Z,2.90
2022-10-19T23:56:11.869Z,2.80
2022-10-19T23:58:39.962Z,2.80
